Time;durP1;ratioP1;P1;durP2;ratioP2;P2;SDS_P1;SDS_P2;PMS_P1;PMS_P2;Temp;Humidity;BMP_temperature;BMP_pressure;BME280_temperature;BME280_humidity;BME280_pressure;Samples;Min_cycle;Max_cycle;Signal;HPM_P1;HPM_P2
2022/06/22 00:01:01;;;;;;;25.23;19.27;;;563.40;2432.00;;;;;;4998587;28;20036;-80
2022/06/22 00:03:28;;;;;;;23.00;18.75;;;538.50;2406.40;;;;;;5001887;28;20032;-81
2022/06/22 00:05:54;;;;;;;20.77;17.90;;;563.20;2432.00;;;;;;5002453;28;20057;-80
2022/06/22 00:08:26;;;;;;;24.60;18.77;;;538.40;2406.40;;;;;;5001359;28;20422;-81
2022/06/22 00:11:02;;;;;;;19.58;17.52;;;538.50;2406.40;;;;;;5001317;28;20118;-81
2022/06/22 00:13:30;;;;;;;20.38;15.73;;;538.50;2406.40;;;;;;4999153;28;20062;-80
2022/06/22 00:16:06;;;;;;;18.50;16.52;;;563.20;2432.00;;;;;;4997188;28;20113;-82
2022/06/22 00:18:38;;;;;;;19.83;17.83;;;563.20;2432.00;;;;;;4996968;28;20476;-81
2022/06/22 00:21:16;;;;;;;23.73;16.30;;;538.50;2406.40;;;;;;4996111;28;20039;-82
2022/06/22 00:23:45;;;;;;;22.10;17.95;;;538.50;2048.00;;;;;;4996018;28;20033;-82
2022/06/22 00:26:36;;;;;;;31.08;19.00;;;538.50;2406.40;;;;;;4996233;28;20026;-81
2022/06/22 00:29:05;;;;;;;24.02;19.02;;;538.50;2406.40;;;;;;4998158;28;20034;-81
2022/06/22 00:31:43;;;;;;;21.45;19.13;;;538.50;2406.40;;;;;;4999434;28;20061;-81
2022/06/22 00:34:09;;;;;;;21.98;19.67;;;538.50;2406.40;;;;;;4999311;28;20052;-81
2022/06/22 00:36:35;;;;;;;21.20;18.83;;;538.50;2406.40;;;;;;4999017;28;20459;-81
2022/06/22 00:39:15;;;;;;;31.13;18.38;;;538.50;2406.40;;;;;;4999013;28;20527;-81
2022/06/22 00:42:14;;;;;;;25.42;17.75;;;538.50;2406.40;;;;;;4998996;28;20037;-81
2022/06/22 00:44:51;;;;;;;26.20;18.88;;;538.50;2406.40;;;;;;4982528;28;20092;-80
2022/06/22 00:47:26;;;;;;;25.08;15.73;;;538.50;2406.40;;;;;;4999147;28;20114;-81
2022/06/22 00:50:01;;;;;;;24.90;16.60;;;538.50;2406.40;;;;;;4998834;28;20029;-82
2022/06/22 00:52:47;;;;;;;20.08;16.35;;;563.30;2432.00;;;;;;4998870;28;20033;-81
2022/06/22 00:55:31;;;;;;;21.67;18.13;;;563.30;2432.00;;;;;;5015070;28;20053;-81
2022/06/22 00:58:29;;;;;;;20.88;18.17;;;563.20;2432.00;;;;;;4998578;28;20034;-81
2022/06/22 01:01:04;;;;;;;23.52;18.30;;;538.50;2406.40;;;;;;4998079;28;20395;-81
2022/06/22 01:03:36;;;;;;;25.90;18.15;;;538.30;2406.40;;;;;;4998710;28;20375;-81
2022/06/22 01:06:15;;;;;;;30.60;19.58;;;538.30;2406.40;;;;;;5016473;28;20467;-81
2022/06/22 01:08:44;;;;;;;25.30;19.02;;;538.40;2406.40;;;;;;4998749;28;20038;-81
2022/06/22 01:14:08;;;;;;;23.20;16.73;;;538.30;2406.40;;;;;;5016093;28;20127;-81
2022/06/22 01:16:38;;;;;;;22.83;18.27;;;538.10;2406.40;;;;;;4998428;28;20033;-82
2022/06/22 01:19:10;;;;;;;29.35;20.67;;;538.20;2406.40;;;;;;4998648;28;20033;-82
2022/06/22 01:21:40;;;;;;;25.67;19.42;;;538.20;2406.40;;;;;;4998511;28;20133;-82
2022/06/22 01:24:38;;;;;;;23.38;18.92;;;538.30;2355.20;;;;;;4998424;28;20088;-81
2022/06/22 01:27:33;;;;;;;21.50;17.08;;;538.20;2073.60;;;;;;4998511;28;20029;-81
2022/06/22 01:30:03;;;;;;;25.05;17.23;;;538.00;2048.00;;;;;;5007644;28;20046;-79
2022/06/22 01:32:35;;;;;;;23.83;16.83;;;538.10;2406.40;;;;;;5008639;28;20037;-77
2022/06/22 01:35:25;;;;;;;17.33;15.50;;;538.10;2406.40;;;;;;5002576;28;20026;-80
2022/06/22 01:37:51;;;;;;;22.48;16.30;;;538.00;2406.40;;;;;;4997837;28;20037;-81
2022/06/22 01:40:30;;;;;;;18.25;16.35;;;512.80;2380.80;;;;;;4998143;28;20030;-80
2022/06/22 01:43:01;;;;;;;17.08;15.38;;;538.00;2252.80;;;;;;4998145;28;20030;-80
2022/06/22 01:45:47;;;;;;;18.50;15.43;;;537.90;2406.40;;;;;;4997926;28;20029;-81
2022/06/22 01:48:23;;;;;;;20.17;17.42;;;538.10;2406.40;;;;;;4997559;28;20026;-80
2022/06/22 01:51:05;;;;;;;25.90;17.33;;;538.10;2406.40;;;;;;4998016;28;20033;-80
2022/06/22 01:53:34;;;;;;;;;;;538.20;2406.40;;;;;;4997920;28;20062;-81
2022/06/22 01:56:34;;;;;;;23.77;17.67;;;538.30;2406.40;;;;;;4997807;28;19906;-80
2022/06/22 01:59:18;;;;;;;20.40;18.38;;;538.40;2406.40;;;;;;5014811;28;20456;-81
2022/06/22 02:02:24;;;;;;;20.50;17.70;;;538.50;2406.40;;;;;;4997662;28;20084;-80
2022/06/22 02:05:12;;;;;;;20.58;17.13;;;538.50;2406.40;;;;;;4996886;28;20026;-82
2022/06/22 02:07:51;;;;;;;22.20;17.75;;;563.20;2432.00;;;;;;4997703;28;20053;-82
2022/06/22 02:10:44;;;;;;;19.67;17.50;;;538.50;2406.40;;;;;;5015160;28;20029;-81
2022/06/22 02:13:29;;;;;;;20.00;18.02;;;538.30;2406.40;;;;;;4997389;28;20036;-81
2022/06/22 02:16:09;;;;;;;20.00;17.35;;;538.20;2406.40;;;;;;4997247;28;20028;-81
2022/06/22 02:18:50;;;;;;;21.80;18.30;;;538.10;2406.40;;;;;;4997484;28;20489;-81
2022/06/22 02:21:46;;;;;;;25.00;18.17;;;538.20;2406.40;;;;;;4997235;28;20026;-81
2022/06/22 02:24:29;;;;;;;19.70;17.52;;;538.10;2406.40;;;;;;4989305;28;20042;-82
2022/06/22 02:27:12;;;;;;;20.70;17.17;;;538.20;2329.60;;;;;;4997008;28;20029;-81
2022/06/22 02:29:44;;;;;;;20.85;17.50;;;538.10;2406.40;;;;;;4993601;28;20575;-81
2022/06/22 02:32:28;;;;;;;25.33;18.08;;;538.00;2406.40;;;;;;4994007;28;20081;-82
2022/06/22 02:34:56;;;;;;;18.77;16.60;;;537.70;2176.00;;;;;;4993686;28;20034;-80
2022/06/22 02:37:25;;;;;;;22.23;16.45;;;537.90;2022.40;;;;;;4993884;28;20025;-79
2022/06/22 02:39:58;;;;;;;19.42;16.30;;;537.90;2406.40;;;;;;4993806;28;20463;-82
2022/06/22 02:45:11;;;;;;;20.30;17.60;;;538.00;2406.40;;;;;;4995037;28;20109;-79
2022/06/22 02:47:46;;;;;;;22.42;18.67;;;537.70;2406.40;;;;;;4993409;28;20461;-79
2022/06/22 02:50:21;;;;;;;22.23;20.02;;;537.80;2406.40;;;;;;4993560;28;20432;-80
2022/06/22 02:52:52;;;;;;;24.80;20.80;;;537.70;2406.40;;;;;;4993649;28;20081;-80
2022/06/22 02:55:22;;;;;;;28.52;20.77;;;512.80;2380.80;;;;;;4993388;28;20034;-80
2022/06/22 02:57:54;;;;;;;26.60;22.85;;;512.90;2380.80;;;;;;4993387;28;20037;-80
2022/06/22 03:00:24;;;;;;;31.02;23.98;;;512.90;2380.80;;;;;;4993487;28;20030;-81
2022/06/22 03:02:56;;;;;;;29.85;25.85;;;512.80;2380.80;;;;;;4993230;28;20063;-80
2022/06/22 03:05:24;;;;;;;30.73;24.65;;;512.80;2380.80;;;;;;4993152;28;20117;-81
2022/06/22 03:07:57;;;;;;;30.55;23.13;;;512.90;2380.80;;;;;;4993419;28;20125;-79
2022/06/22 03:10:30;;;;;;;29.70;25.42;;;512.90;2380.80;;;;;;4993075;28;20030;-80
2022/06/22 03:12:57;;;;;;;28.98;25.55;;;512.80;2380.80;;;;;;4993082;28;20030;-80
2022/06/22 03:15:33;;;;;;;31.52;26.67;;;512.70;2380.80;;;;;;4994358;28;20058;-82
2022/06/22 03:18:00;;;;;;;28.95;25.83;;;512.80;2380.80;;;;;;4994444;28;20114;-80
2022/06/22 03:20:31;;;;;;;37.05;27.83;;;512.80;2380.80;;;;;;4993129;28;20125;-80
2022/06/22 03:23:27;;;;;;;30.75;25.60;;;512.80;2380.80;;;;;;4994188;28;20023;-80
2022/06/22 03:26:04;;;;;;;29.73;26.80;;;512.80;2380.80;;;;;;4992875;28;20022;-79
2022/06/22 03:28:40;;;;;;;29.23;25.45;;;512.90;2380.80;;;;;;4993125;28;20034;-79
2022/06/22 03:31:13;;;;;;;28.58;25.50;;;512.90;2380.80;;;;;;4992499;28;20051;-80
2022/06/22 03:34:05;;;;;;;31.75;25.50;;;512.90;2380.80;;;;;;4993045;28;20023;-80
2022/06/22 03:36:33;;;;;;;29.02;26.15;;;512.90;2380.80;;;;;;4990552;28;20098;-80
2022/06/22 03:39:05;;;;;;;42.83;25.83;;;512.90;2380.80;;;;;;4994074;28;20097;-79
2022/06/22 03:41:35;;;;;;;26.90;23.80;;;512.80;2380.80;;;;;;4997956;28;20036;-80
2022/06/22 03:44:13;;;;;;;31.50;23.75;;;512.80;2150.40;;;;;;4997727;28;20026;-80
2022/06/22 03:46:56;;;;;;;30.02;23.35;;;512.90;2380.80;;;;;;4996401;28;20030;-80
2022/06/22 03:49:29;;;;;;;31.35;21.70;;;512.90;2380.80;;;;;;5011368;28;20026;-74
2022/06/22 03:52:33;;;;;;;24.58;21.25;;;512.90;2380.80;;;;;;5007841;28;20037;-74
2022/06/22 03:55:08;;;;;;;30.48;20.38;;;537.60;2406.40;;;;;;4984866;28;20034;-80
2022/06/22 03:57:37;;;;;;;23.83;21.30;;;512.90;2380.80;;;;;;4975651;28;20125;-80
2022/06/22 04:00:06;;;;;;;24.85;21.25;;;512.90;2380.80;;;;;;4983560;28;20042;-81
2022/06/22 04:02:33;;;;;;;27.58;21.92;;;512.80;2380.80;;;;;;4993061;28;20054;-81
2022/06/22 04:05:00;;;;;;;28.83;21.80;;;512.80;2380.80;;;;;;4992811;28;20027;-81
2022/06/22 04:07:34;;;;;;;29.52;24.77;;;512.90;2380.80;;;;;;4992986;28;20365;-81
2022/06/22 04:10:00;;;;;;;25.27;22.63;;;537.60;2406.40;;;;;;4992482;28;20708;-81
2022/06/22 04:12:34;;;;;;;25.35;22.67;;;538.20;2099.20;;;;;;4992647;28;20022;-80
2022/06/22 04:15:31;;;;;;;31.42;23.20;;;512.90;2380.80;;;;;;4992898;28;20037;-80
2022/06/22 04:18:05;;;;;;;25.45;22.20;;;537.60;2406.40;;;;;;4992597;28;20030;-81
2022/06/22 04:20:51;;;;;;;27.90;21.38;;;537.70;2406.40;;;;;;4992372;28;20034;-80
2022/06/22 04:23:37;;;;;;;26.25;21.98;;;537.60;2406.40;;;;;;4993129;28;20522;-80
2022/06/22 04:26:30;;;;;;;25.80;21.33;;;537.60;2406.40;;;;;;4992510;28;20388;-81
2022/06/22 04:29:05;;;;;;;32.03;21.27;;;512.90;2380.80;;;;;;4988876;28;20081;-82
2022/06/22 04:31:39;;;;;;;25.95;22.38;;;512.90;2380.80;;;;;;4999641;28;20583;-80
2022/06/22 04:34:07;;;;;;;29.75;22.85;;;537.60;2406.40;;;;;;4999589;28;20426;-81
2022/06/22 04:36:52;;;;;;;30.17;22.45;;;512.90;2380.80;;;;;;4999721;28;20382;-81
2022/06/22 04:39:25;;;;;;;26.38;20.73;;;512.90;2380.80;;;;;;5001438;28;20032;-76
2022/06/22 04:41:52;;;;;;;23.23;19.08;;;537.70;2406.40;;;;;;4999858;28;20033;-81
2022/06/22 04:44:24;;;;;;;25.45;21.13;;;537.70;2406.40;;;;;;4999953;28;20420;-80
2022/06/22 04:46:53;;;;;;;25.25;19.65;;;537.70;2406.40;;;;;;4998948;28;20463;-81
2022/06/22 04:49:31;;;;;;;30.77;20.55;;;537.80;2406.40;;;;;;4999400;28;20129;-81
2022/06/22 04:52:10;;;;;;;28.00;19.65;;;537.80;2406.40;;;;;;4999891;28;20030;-81
2022/06/22 04:54:40;;;;;;;25.48;20.42;;;537.80;2073.60;;;;;;4999131;28;20478;-80
2022/06/22 04:57:28;;;;;;;27.98;20.17;;;537.80;2406.40;;;;;;4999103;28;20026;-81
2022/06/22 04:59:55;;;;;;;25.90;21.15;;;537.80;2406.40;;;;;;4999055;28;20034;-80
2022/06/22 05:02:24;;;;;;;24.20;20.45;;;537.90;2406.40;;;;;;4998893;28;20120;-81
2022/06/22 05:04:53;;;;;;;24.83;21.10;;;537.80;2406.40;;;;;;5016615;28;20029;-80
2022/06/22 05:07:52;;;;;;;24.70;20.27;;;537.70;2406.40;;;;;;4998783;28;20032;-81
2022/06/22 05:10:42;;;;;;;22.55;20.02;;;537.80;2150.40;;;;;;4999111;28;20056;-80
2022/06/22 05:13:17;;;;;;;29.50;22.27;;;537.90;2073.60;;;;;;4999102;28;20479;-81
2022/06/22 05:15:46;;;;;;;24.75;20.55;;;538.00;2406.40;;;;;;4998567;28;20030;-81
2022/06/22 05:18:21;;;;;;;28.85;19.65;;;538.00;2406.40;;;;;;5016049;28;20030;-81
2022/06/22 05:21:07;;;;;;;29.15;19.25;;;538.10;2048.00;;;;;;5016369;28;20390;-80
2022/06/22 05:23:33;;;;;;;25.23;21.70;;;538.20;2406.40;;;;;;4990767;28;20030;-82
2022/06/22 05:26:07;;;;;;;38.08;21.45;;;538.40;2406.40;;;;;;4998742;28;20022;-81
2022/06/22 05:28:47;;;;;;;32.45;20.60;;;538.40;2406.40;;;;;;4998353;28;20096;-80
2022/06/22 05:31:30;;;;;;;28.08;19.98;;;538.50;2406.40;;;;;;5014897;28;20045;-82
2022/06/22 05:34:05;;;;;;;27.38;20.45;;;538.50;2406.40;;;;;;4998450;28;20022;-82
2022/06/22 05:36:37;;;;;;;26.67;19.98;;;563.20;2432.00;;;;;;4998476;28;20034;-81
2022/06/22 05:39:04;;;;;;;21.35;18.33;;;563.20;2432.00;;;;;;4998455;28;20030;-82
2022/06/22 05:41:35;;;;;;;22.60;18.38;;;563.30;2432.00;;;;;;4998804;28;20136;-81
2022/06/22 05:44:06;;;;;;;27.40;18.10;;;563.50;2432.00;;;;;;4998663;28;20084;-81
2022/06/22 05:46:33;;;;;;;29.10;21.33;;;563.60;2432.00;;;;;;4998658;28;20026;-82
2022/06/22 05:48:59;;;;;;;26.38;20.30;;;563.60;2432.00;;;;;;4998040;28;20030;-85
2022/06/22 05:51:45;;;;;;;25.50;20.13;;;563.90;2432.00;;;;;;4997864;28;20030;-82
2022/06/22 05:54:56;;;;;;;22.80;19.58;;;563.80;2432.00;;;;;;4998265;28;20068;-82
2022/06/22 05:57:49;;;;;;;24.15;17.38;;;563.80;2432.00;;;;;;4997971;28;20391;-82
2022/06/22 06:00:21;;;;;;;23.30;17.15;;;563.90;2432.00;;;;;;4998133;28;20030;-82
2022/06/22 06:02:59;;;;;;;23.42;18.13;;;564.00;2432.00;;;;;;4998404;28;20120;-83
2022/06/22 06:05:36;;;;;;;25.42;17.80;;;564.00;2432.00;;;;;;4998016;28;20094;-82
2022/06/22 06:08:08;;;;;;;27.55;19.70;;;564.10;2432.00;;;;;;5015444;28;20467;-83
2022/06/22 06:10:38;;;;;;;24.25;17.23;;;588.80;2432.00;;;;;;4997660;28;20137;-83
2022/06/22 06:13:19;;;;;;;25.52;18.27;;;588.80;2432.00;;;;;;4997791;28;20030;-83
2022/06/22 06:15:47;;;;;;;26.42;18.15;;;588.80;2432.00;;;;;;4997838;28;20030;-84
2022/06/22 06:18:19;;;;;;;20.58;17.75;;;589.10;2432.00;;;;;;4997487;28;20030;-83
2022/06/22 06:20:50;;;;;;;20.55;16.63;;;589.20;2432.00;;;;;;5014706;28;20076;-82
2022/06/22 06:23:33;;;;;;;26.48;18.52;;;589.30;2432.00;;;;;;4997813;28;20034;-83
2022/06/22 06:29:14;;;;;;;28.48;18.98;;;589.40;2432.00;;;;;;5015324;28;20037;-83
2022/06/22 06:32:07;;;;;;;23.93;17.67;;;589.60;2432.00;;;;;;4979331;28;20129;-84
2022/06/22 06:34:41;;;;;;;21.60;16.45;;;614.50;2432.00;;;;;;4997542;28;20263;-83
2022/06/22 06:37:26;;;;;;;25.17;17.35;;;589.50;2432.00;;;;;;4997338;28;20132;-83
2022/06/22 06:39:56;;;;;;;19.02;16.98;;;589.70;2432.00;;;;;;4997111;28;20030;-83
2022/06/22 06:42:33;;;;;;;23.80;16.77;;;589.70;2432.00;;;;;;5015026;28;20459;-86
2022/06/22 06:45:01;;;;;;;20.55;16.27;;;614.50;2432.00;;;;;;4997261;28;20139;-83
2022/06/22 06:47:36;;;;;;;21.27;15.70;;;614.70;2432.00;;;;;;4996790;28;20135;-83
2022/06/22 06:50:06;;;;;;;21.05;15.80;;;614.80;2432.00;;;;;;4997064;28;20037;-83
2022/06/22 06:52:45;;;;;;;28.08;17.20;;;615.10;2432.00;;;;;;5013988;28;20061;-84
2022/06/22 06:55:14;;;;;;;20.92;17.02;;;615.00;2432.00;;;;;;4997197;28;20118;-83
2022/06/22 06:58:31;;;;;;;22.85;15.95;;;615.00;2432.00;;;;;;4997097;28;20045;-83
2022/06/22 07:00:57;;;;;;;31.13;15.73;;;615.30;2432.00;;;;;;4974795;28;20042;-82
2022/06/22 07:03:31;;;;;;;21.90;15.15;;;640.00;2432.00;;;;;;4996937;28;20137;-84
2022/06/22 07:05:57;;;;;;;18.98;15.05;;;640.20;2432.00;;;;;;4997058;28;20030;-83
2022/06/22 07:08:31;;;;;;;23.30;15.48;;;640.00;2432.00;;;;;;4996690;28;20087;-83
2022/06/22 07:11:00;;;;;;;23.25;13.35;;;640.10;2432.00;;;;;;4996952;28;20022;-84
2022/06/22 07:13:38;;;;;;;21.05;13.68;;;640.10;2432.00;;;;;;4996443;28;20494;-85
2022/06/22 07:16:12;;;;;;;19.42;14.38;;;640.20;2432.00;;;;;;4997166;28;20026;-84
2022/06/22 07:18:45;;;;;;;18.77;13.27;;;640.20;2432.00;;;;;;4997109;28;20034;-83
2022/06/22 07:21:32;;;;;;;19.13;11.18;;;640.40;2432.00;;;;;;4996809;28;20026;-82
2022/06/22 07:24:13;;;;;;;14.82;10.10;;;;;;;;;;5013092;28;20121;-81
2022/06/22 07:27:10;;;;;;;11.15;9.30;;;665.70;2432.00;;;;;;4996811;28;20025;-82
2022/06/22 07:30:00;;;;;;;12.15;8.98;;;665.80;2432.00;;;;;;5009478;28;20051;-82
2022/06/22 07:32:40;;;;;;;10.85;8.82;;;665.80;2432.00;;;;;;4993223;28;20081;-81
2022/06/22 07:35:19;;;;;;;14.95;9.68;;;665.90;2432.00;;;;;;4993222;28;20023;-81
2022/06/22 07:38:03;;;;;;;18.38;10.13;;;665.70;2432.00;;;;;;4993288;28;20034;-81
2022/06/22 07:40:31;;;;;;;17.92;10.45;;;;;;;;;;4994171;28;20491;-80
2022/06/22 07:42:58;;;;;;;18.42;12.02;;;;;;;;;;5008211;28;20026;-82
2022/06/22 07:45:25;;;;;;;14.20;11.52;;;;;;;;;;5012937;28;20022;-81
2022/06/22 07:48:13;;;;;;;19.08;11.48;;;666.40;2432.00;;;;;;5012890;28;20372;-82
2022/06/22 07:50:54;;;;;;;17.67;12.23;;;691.40;2432.00;;;;;;5014205;28;20025;-80
2022/06/22 07:53:23;;;;;;;22.88;10.98;;;;;;;;;;5012910;28;20030;-79
2022/06/22 07:56:09;;;;;;;21.30;12.85;;;;;;;;;;5012305;28;20041;-77
2022/06/22 07:58:43;;;;;;;17.15;12.20;;;;;;;;;;5013603;28;20032;-78
2022/06/22 08:01:11;;;;;;;15.82;13.00;;;;;;;;;;5012546;28;20030;-78
2022/06/22 08:03:47;;;;;;;15.18;12.05;;;;;;;;;;5013783;28;20030;-78
2022/06/22 08:06:16;;;;;;;14.95;12.35;;;;;;;;;;5017439;28;20030;-79
2022/06/22 08:08:52;;;;;;;18.40;12.63;;;;;;;;;;5016518;28;20127;-79
2022/06/22 08:11:24;;;;;;;20.35;12.73;;;;;;;;;;5016333;28;20022;-77
2022/06/22 08:14:01;;;;;;;15.68;11.93;;;;;;;;;;5007134;28;20029;-78
2022/06/22 08:16:29;;;;;;;16.02;14.30;;;;;;;;;;5005616;28;20022;-77
2022/06/22 08:18:56;;;;;;;19.40;13.63;;;;;;;;;;5007033;28;20036;-78
2022/06/22 08:21:22;;;;;;;18.17;12.75;;;;;;;;;;5006492;28;20018;-79
2022/06/22 08:23:49;;;;;;;15.77;12.35;;;;;;;;;;5003880;28;20025;-79
2022/06/22 08:26:29;;;;;;;18.33;12.18;;;691.80;2432.00;;;;;;5003148;28;20023;-80
2022/06/22 08:28:55;;;;;;;14.10;10.77;;;692.00;2432.00;;;;;;5004452;28;20494;-79
2022/06/22 08:31:20;;;;;;;14.10;11.98;;;716.80;2432.00;;;;;;5022205;28;20022;-78
2022/06/22 08:34:01;;;;;;;20.63;12.25;;;717.00;2432.00;;;;;;5026669;28;20037;-77
2022/06/22 08:36:53;;;;;;;17.27;12.15;;;717.10;2432.00;;;;;;5030635;28;20006;-80
2022/06/22 08:39:28;;;;;;;15.20;12.32;;;692.10;2432.00;;;;;;5029843;28;20037;-80
2022/06/22 08:42:09;;;;;;;14.90;11.00;;;716.90;2432.00;;;;;;5004545;28;20038;-80
2022/06/22 08:44:56;;;;;;;13.82;10.25;;;717.10;2432.00;;;;;;5000560;28;20026;-78
2022/06/22 08:47:50;;;;;;;14.55;10.27;;;717.10;2432.00;;;;;;5000335;28;20048;-84
2022/06/22 08:50:35;;;;;;;16.67;10.55;;;717.10;2432.00;;;;;;5000154;28;20034;-78
2022/06/22 08:53:28;;;;;;;18.42;13.52;;;717.20;2432.00;;;;;;4999740;28;20064;-78
2022/06/22 08:56:15;;;;;;;15.18;10.43;;;717.50;2432.00;;;;;;5016960;28;20057;-79
2022/06/22 08:59:14;;;;;;;11.80;9.75;;;717.70;2432.00;;;;;;4995286;28;20100;-83
2022/06/22 09:01:57;;;;;;;17.92;9.85;;;717.30;2432.00;;;;;;4999322;28;20036;-80
2022/06/22 09:04:44;;;;;;;14.52;11.93;;;717.10;2432.00;;;;;;5017497;28;20026;-78
2022/06/22 09:07:27;;;;;;;11.80;9.88;;;717.10;2432.00;;;;;;5021868;28;20055;-80
2022/06/22 09:10:26;;;;;;;19.42;11.27;;;717.50;2432.00;;;;;;5010213;28;20077;-80
2022/06/22 09:13:11;;;;;;;11.98;10.18;;;742.50;2432.00;;;;;;5024545;28;20022;-82
2022/06/22 09:16:14;;;;;;;12.48;10.50;;;742.60;2432.00;;;;;;4999675;28;20022;-77
2022/06/22 09:19:04;;;;;;;14.40;10.18;;;742.40;2432.00;;;;;;5001292;28;20030;-77
2022/06/22 09:22:00;;;;;;;15.07;12.20;;;742.60;2432.00;;;;;;5001365;28;20117;-78
2022/06/22 09:24:44;;;;;;;16.73;10.43;;;742.80;2432.00;;;;;;5000032;28;20044;-84
2022/06/22 09:27:20;;;;;;;15.25;9.88;;;743.00;2432.00;;;;;;4998667;28;20029;-84
2022/06/22 09:30:00;;;;;;;16.35;10.43;;;;;;;;;;4999021;28;20077;-80
2022/06/22 09:32:53;;;;;;;15.38;10.05;;;768.20;2432.00;;;;;;5016761;28;20084;-83
2022/06/22 09:35:51;;;;;;;14.00;10.20;;;743.00;2432.00;;;;;;4998708;28;20026;-81
2022/06/22 09:38:47;;;;;;;18.10;11.68;;;743.00;2432.00;;;;;;4999092;28;20026;-81
2022/06/22 09:41:51;;;;;;;14.32;9.65;;;742.90;2432.00;;;;;;5005396;28;20547;-81
2022/06/22 09:44:43;;;;;;;16.92;11.00;;;717.70;2432.00;;;;;;5013401;28;20037;-83
2022/06/22 09:47:30;;;;;;;13.13;9.50;;;717.60;2432.00;;;;;;5025802;28;20025;-81
2022/06/22 09:50:10;;;;;;;15.18;10.75;;;742.40;2432.00;;;;;;5035554;28;20434;-82
2022/06/22 09:53:04;;;;;;;16.23;11.43;;;742.50;2432.00;;;;;;5017842;28;20075;-82
2022/06/22 09:58:38;;;;;;;17.23;10.57;;;768.10;2432.00;;;;;;5033955;28;20036;-83
2022/06/22 10:01:19;;;;;;;16.98;10.68;;;768.70;2432.00;;;;;;5021159;28;20103;-81
2022/06/22 10:04:12;;;;;;;15.40;10.60;;;768.70;2432.00;;;;;;5034985;28;20033;-82
2022/06/22 10:06:56;;;;;;;20.05;13.40;;;793.70;2432.00;;;;;;5017403;28;20129;-82
2022/06/22 10:09:34;;;;;;;15.65;12.38;;;793.90;2432.00;;;;;;5037089;28;20147;-81
2022/06/22 10:12:14;;;;;;;14.35;10.45;;;793.80;2432.00;;;;;;5037187;28;20022;-82
2022/06/22 10:14:43;;;;;;;11.93;10.43;;;793.70;2432.00;;;;;;5018868;28;20038;-82
2022/06/22 10:17:38;;;;;;;15.75;9.10;;;768.90;2432.00;;;;;;5013244;28;20034;-82
2022/06/22 10:20:23;;;;;;;16.40;8.30;;;768.40;2432.00;;;;;;4997265;28;20049;-83
2022/06/22 10:22:55;;;;;;;9.35;6.20;;;768.10;2432.00;;;;;;4997190;28;20387;-83
2022/06/22 10:25:45;;;;;;;7.45;5.38;;;743.10;2406.40;;;;;;4997136;28;20463;-83
2022/06/22 10:28:16;;;;;;;10.52;5.80;;;742.90;2406.40;;;;;;5007737;28;20462;-81
2022/06/22 10:31:07;;;;;;;11.37;5.87;;;742.80;2432.00;;;;;;5016265;28;20155;-83
2022/06/22 10:33:39;;;;;;;11.38;5.80;;;742.50;2406.40;;;;;;5034421;28;20061;-82
2022/06/22 10:36:29;;;;;;;10.80;6.38;;;717.60;2329.60;;;;;;5026774;28;20053;-80
2022/06/22 10:39:25;;;;;;;17.48;12.38;;;717.40;2380.80;;;;;;4997430;28;20557;-82
2022/06/22 10:45:08;;;;;;;21.45;19.23;;;717.20;2380.80;;;;;;5014523;28;20049;-79
2022/06/22 10:47:52;;;;;;;12.52;10.63;;;717.30;2380.80;;;;;;4997187;28;20479;-81
2022/06/22 10:50:53;;;;;;;11.60;7.88;;;717.30;2355.20;;;;;;4996549;28;20467;-79
2022/06/22 10:53:48;;;;;;;13.25;10.35;;;717.60;2329.60;;;;;;4947891;28;20034;-81
2022/06/22 10:56:35;;;;;;;16.60;8.68;;;742.60;2329.60;;;;;;4996724;28;20025;-82
2022/06/22 10:59:13;;;;;;;10.73;7.35;;;742.90;2329.60;;;;;;4996474;28;20030;-81
2022/06/22 11:02:05;;;;;;;14.05;6.50;;;743.20;2329.60;;;;;;4996806;28;20037;-84
2022/06/22 11:04:43;;;;;;;10.88;7.88;;;768.20;2252.80;;;;;;4983547;28;20041;-85
2022/06/22 11:07:39;;;;;;;13.52;6.35;;;768.60;2201.60;;;;;;4996757;28;20494;-83
2022/06/22 11:10:39;;;;;;;8.55;5.32;;;793.60;2201.60;;;;;;4996862;28;20466;-84
2022/06/22 11:13:23;;;;;;;6.88;5.93;;;793.90;2150.40;;;;;;4996342;28;20379;-84
2022/06/22 11:16:12;;;;;;;8.57;4.50;;;794.00;2150.40;;;;;;4996403;28;20053;-83
2022/06/22 11:18:53;;;;;;;12.32;5.53;;;793.60;2099.20;;;;;;5013821;28;20478;-85
2022/06/22 11:21:46;;;;;;;6.97;5.10;;;768.60;2124.80;;;;;;4996484;28;20061;-84
2022/06/22 11:24:26;;;;;;;9.10;5.90;;;768.60;2124.80;;;;;;4997041;28;20029;-84
2022/06/22 11:32:57;;;;;;;10.45;7.13;;;768.30;2176.00;;;;;;5013457;28;20044;-84
2022/06/22 11:35:54;;;;;;;14.20;8.63;;;768.30;2201.60;;;;;;4996289;28;20472;-82
2022/06/22 11:39:02;;;;;;;9.75;5.88;;;768.20;2176.00;;;;;;4996277;28;20026;-85
2022/06/22 11:41:43;;;;;;;37.35;10.30;;;768.30;2201.60;;;;;;4996018;28;20034;-84
2022/06/22 11:44:33;;;;;;;12.43;7.63;;;768.20;2201.60;;;;;;4996172;28;20383;-84
2022/06/22 11:47:09;;;;;;;12.50;8.27;;;768.20;2252.80;;;;;;5013467;28;20582;-86
2022/06/22 11:50:07;;;;;;;13.80;8.05;;;768.60;2278.40;;;;;;4996507;28;20129;-85
2022/06/22 11:53:30;;;;;;;14.65;9.50;;;768.60;2278.40;;;;;;4993385;28;20042;-84
2022/06/22 11:56:03;;;;;;;12.75;8.27;;;768.50;2278.40;;;;;;4937464;29;20466;-83
2022/06/22 11:59:27;;;;;;;11.90;8.38;;;768.80;2252.80;;;;;;4936960;29;20046;-84
2022/06/22 12:02:38;;;;;;;17.30;8.63;;;768.60;2201.60;;;;;;4914411;29;20040;-85
2022/06/22 12:05:28;;;;;;;15.98;7.35;;;768.70;2201.60;;;;;;4986615;28;20038;-86
2022/06/22 12:08:03;;;;;;;10.93;7.05;;;793.90;2227.20;;;;;;5015462;28;20087;-85
2022/06/22 12:10:36;;;;;;;8.90;6.82;;;793.90;2176.00;;;;;;5015867;28;20463;-86
2022/06/22 12:13:11;;;;;;;8.65;6.28;;;794.10;2124.80;;;;;;5011978;28;20022;-86
2022/06/22 12:16:16;;;;;;;11.02;6.80;;;794.10;2099.20;;;;;;5006298;28;20022;-85
2022/06/22 12:19:14;;;;;;;11.07;6.57;;;794.00;2073.60;;;;;;4964399;28;20553;-86
2022/06/22 12:21:51;;;;;;;13.68;7.40;;;794.20;2099.20;;;;;;4996546;28;20041;-87
2022/06/22 12:24:33;;;;;;;12.52;7.82;;;;;;;;;;4996202;28;20076;-85
2022/06/22 12:27:31;;;;;;;11.13;7.68;;;794.50;2073.60;;;;;;4996412;28;20022;-86
2022/06/22 12:30:27;;;;;;;13.95;8.15;;;794.40;2073.60;;;;;;4992833;28;20046;-85
2022/06/22 12:33:18;;;;;;;11.73;8.50;;;819.30;2099.20;;;;;;4992935;28;20400;-86
2022/06/22 12:35:59;;;;;;;14.27;7.85;;;819.60;2048.00;;;;;;4992970;28;20026;-85
2022/06/22 12:38:30;;;;;;;12.15;8.73;;;819.50;2022.40;;;;;;4992688;28;20037;-85
2022/06/22 12:41:08;;;;;;;10.25;8.88;;;819.60;2048.00;;;;;;4992901;28;20380;-83
2022/06/22 12:43:45;;;;;;;12.18;8.93;;;819.80;2048.00;;;;;;4992509;28;20038;-83
2022/06/22 12:46:35;;;;;;;12.98;10.52;;;820.00;2048.00;;;;;;4992668;28;20027;-85
2022/06/22 12:49:15;;;;;;;15.27;9.20;;;819.90;1996.80;;;;;;4993855;28;20380;-84
2022/06/22 12:51:56;;;;;;;12.50;8.80;;;820.00;1996.80;;;;;;5013019;28;20475;-86
2022/06/22 12:54:27;;;;;;;16.10;12.15;;;820.00;1971.20;;;;;;5017055;28;20026;-86
2022/06/22 12:57:08;;;;;;;10.63;7.78;;;819.80;1996.80;;;;;;5013186;28;20460;-85
2022/06/22 12:59:37;;;;;;;12.40;7.85;;;819.90;1996.80;;;;;;4996111;28;20038;-84
2022/06/22 13:02:09;;;;;;;12.82;8.70;;;820.10;1945.60;;;;;;5004842;28;20030;-87
2022/06/22 13:04:36;;;;;;;16.15;11.05;;;819.70;1971.20;;;;;;4996408;28;20061;-87
2022/06/22 13:07:06;;;;;;;9.57;8.23;;;820.10;1996.80;;;;;;4997997;28;20357;-87
2022/06/22 13:09:33;;;;;;;12.63;8.30;;;820.10;1971.20;;;;;;4996676;28;20026;-85
2022/06/22 13:12:03;;;;;;;9.30;6.97;;;844.90;1996.80;;;;;;4996136;28;20026;-87
2022/06/22 13:14:39;;;;;;;12.85;7.72;;;844.90;1996.80;;;;;;4995960;28;20022;-85
2022/06/22 13:17:22;;;;;;;13.13;8.48;;;844.80;1971.20;;;;;;4996977;28;20126;-85
2022/06/22 13:20:31;;;;;;;12.25;8.70;;;845.20;1996.80;;;;;;4995937;28;20079;-84
2022/06/22 13:23:15;;;;;;;11.82;8.20;;;845.10;1945.60;;;;;;4995693;28;20120;-84
2022/06/22 13:25:56;;;;;;;11.80;8.38;;;845.30;1945.60;;;;;;4995548;28;20026;-85
2022/06/22 13:28:43;;;;;;;15.85;8.75;;;845.30;1945.60;;;;;;4995524;28;20389;-85
2022/06/22 13:31:23;;;;;;;13.93;9.00;;;845.30;1945.60;;;;;;4995097;28;20507;-83